Time;durP1;ratioP1;P1;durP2;ratioP2;P2;SDS_P1;SDS_P2;PMS_P1;PMS_P2;Temp;Humidity;BMP_temperature;BMP_pressure;BME280_temperature;BME280_humidity;BME280_pressure;Samples;Min_cycle;Max_cycle;Signal;HPM_P1;HPM_P2
2024/01/02 00:01:26;;;;;;;0.60;0.60;;;;;;;6.72;95.09;96709.44;5006737;28;20608;-66
2024/01/02 00:03:53;;;;;;;0.60;0.60;;;;;;;6.84;95.07;96710.16;5021705;28;20058;-66
2024/01/02 00:06:20;;;;;;;0.60;0.60;;;;;;;6.94;94.87;96720.63;5006598;28;20054;-66
2024/01/02 00:08:47;;;;;;;0.60;0.60;;;;;;;6.95;93.42;96716.75;5006118;28;20124;-66
2024/01/02 00:11:14;;;;;;;0.60;0.60;;;;;;;6.78;93.20;96683.25;5005870;28;20528;-66
2024/01/02 00:13:42;;;;;;;0.60;0.60;;;;;;;7.13;92.81;96708.91;5006748;28;20049;-66
2024/01/02 00:16:09;;;;;;;0.60;0.60;;;;;;;7.15;92.24;96712.91;5006550;28;20066;-66
2024/01/02 00:18:36;;;;;;;0.50;0.50;;;;;;;6.73;92.57;96691.78;5006932;28;20062;-66
2024/01/02 00:21:04;;;;;;;0.50;0.50;;;;;;;6.87;92.27;96703.16;5006784;28;20050;-66
2024/01/02 00:23:31;;;;;;;0.60;0.60;;;;;;;6.35;92.92;96609.03;5006765;28;20105;-66
2024/01/02 00:25:58;;;;;;;0.60;0.60;;;;;;;6.89;93.19;96704.38;5006624;28;20061;-66
2024/01/02 00:28:25;;;;;;;0.60;0.60;;;;;;;6.97;92.17;96713.63;5006738;28;20473;-66
2024/01/02 00:30:52;;;;;;;0.50;0.50;;;;;;;7.03;91.12;96702.00;5005962;28;20500;-66
2024/01/02 00:33:20;;;;;;;0.50;0.50;;;;;;;6.39;92.27;96643.72;5006306;28;20132;-66
2024/01/02 00:35:47;;;;;;;0.60;0.60;;;;;;;6.69;92.04;96713.69;5006590;28;20057;-66
2024/01/02 00:38:14;;;;;;;0.60;0.60;;;;;;;6.16;95.87;96705.94;5005881;28;20149;-66
2024/01/02 00:40:42;;;;;;;0.50;0.50;;;;;;;6.48;94.85;96707.63;5006135;28;20115;-66
2024/01/02 00:43:09;;;;;;;0.52;0.52;;;;;;;6.52;94.93;96704.97;5006380;28;20444;-66
2024/01/02 00:45:36;;;;;;;0.60;0.60;;;;;;;6.51;94.06;96706.94;5004735;28;20050;-66
2024/01/02 00:48:03;;;;;;;0.60;0.60;;;;;;;6.58;93.78;96712.63;5021307;28;20432;-66
2024/01/02 00:50:31;;;;;;;0.50;0.50;;;;;;;6.64;92.44;96716.69;5006279;28;20050;-66
2024/01/02 00:53:03;;;;;;;0.50;0.50;;;;;;;6.62;92.78;96707.22;5006250;28;20050;-66
2024/01/02 00:55:31;;;;;;;0.60;0.60;;;;;;;6.04;94.94;96693.03;5021163;28;20054;-67
2024/01/02 00:57:58;;;;;;;0.60;0.60;;;;;;;5.57;96.30;96634.34;5021157;28;20058;-67
2024/01/02 01:00:25;;;;;;;0.50;0.50;;;;;;;6.14;95.69;96708.25;5006255;28;20056;-66
2024/01/02 01:02:52;;;;;;;0.50;0.50;;;;;;;6.18;94.62;96709.94;5006033;28;20116;-66
2024/01/02 01:05:19;;;;;;;0.50;0.50;;;;;;;6.16;94.66;96705.94;5006743;28;20057;-66
2024/01/02 01:07:47;;;;;;;0.50;0.50;;;;;;;6.14;94.93;96697.25;5005590;28;20057;-66
2024/01/02 01:10:14;;;;;;;0.57;0.57;;;;;;;5.47;94.66;96595.56;5005435;28;20141;-66
2024/01/02 01:12:41;;;;;;;0.57;0.57;;;;;;;6.06;95.92;96689.94;5020994;28;20062;-66
2024/01/02 01:15:08;;;;;;;0.60;0.60;;;;;;;5.81;95.77;96645.25;5006002;28;20050;-66
2024/01/02 01:17:35;;;;;;;0.60;0.60;;;;;;;6.09;95.56;96698.31;5005250;28;20560;-66
2024/01/02 01:20:03;;;;;;;0.50;0.50;;;;;;;6.07;95.58;96697.03;5005828;28;20062;-66
2024/01/02 01:22:30;;;;;;;0.60;0.60;;;;;;;6.12;95.10;96699.53;5005285;28;20549;-66
2024/01/02 01:24:57;;;;;;;0.60;0.60;;;;;;;6.13;94.81;96684.66;5005698;28;20050;-68
2024/01/02 01:27:24;;;;;;;0.60;0.60;;;;;;;5.97;94.68;96657.09;5020222;28;20049;-66
2024/01/02 01:29:51;;;;;;;0.50;0.50;;;;;;;6.08;94.21;96676.66;5005546;28;20058;-66
2024/01/02 01:32:18;;;;;;;0.50;0.50;;;;;;;5.95;94.52;96681.41;5005053;28;20136;-66
2024/01/02 01:34:44;;;;;;;0.50;0.50;;;;;;;6.03;95.80;96696.16;5005381;28;20049;-66
2024/01/02 01:37:11;;;;;;;0.60;0.60;;;;;;;6.08;95.60;96693.16;5020288;28;20155;-66
2024/01/02 01:39:39;;;;;;;0.50;0.50;;;;;;;6.02;95.25;96683.56;5005441;28;20405;-66
2024/01/02 01:42:06;;;;;;;0.50;0.50;;;;;;;6.00;95.21;96688.59;5005253;28;20053;-66
2024/01/02 01:44:33;;;;;;;0.57;0.57;;;;;;;5.81;94.46;96661.72;5005867;28;20054;-66
2024/01/02 01:47:00;;;;;;;0.50;0.50;;;;;;;5.82;95.24;96673.53;5020390;28;20046;-66
2024/01/02 01:49:26;;;;;;;0.50;0.50;;;;;;;5.43;95.67;96600.16;5005606;28;20058;-67
2024/01/02 01:51:54;;;;;;;0.60;0.60;;;;;;;5.83;96.88;96680.66;5020014;28;20061;-67
2024/01/02 01:54:22;;;;;;;0.50;0.50;;;;;;;5.88;97.40;96680.41;5020160;28;20123;-66
2024/01/02 01:56:51;;;;;;;0.50;0.50;;;;;;;5.94;97.13;96676.25;5019947;28;20058;-67
2024/01/02 01:59:18;;;;;;;0.50;0.50;;;;;;;5.50;95.37;96594.88;5004905;28;20042;-66
2024/01/02 02:01:46;;;;;;;0.50;0.50;;;;;;;5.74;94.84;96633.22;5004669;28;20046;-66
2024/01/02 02:04:15;;;;;;;0.55;0.55;;;;;;;6.03;94.45;96676.91;5004692;28;20058;-67
2024/01/02 02:06:41;;;;;;;0.52;0.52;;;;;;;6.15;93.27;96676.84;5005056;28;20125;-67
2024/01/02 02:09:08;;;;;;;0.50;0.50;;;;;;;6.00;94.80;96674.84;5004631;28;20056;-66
2024/01/02 02:11:37;;;;;;;0.50;0.50;;;;;;;5.95;95.63;96672.34;4990228;28;20046;-68
2024/01/02 02:14:05;;;;;;;0.50;0.50;;;;;;;5.95;95.55;96672.34;4985279;28;20054;-67
2024/01/02 02:16:32;;;;;;;0.50;0.50;;;;;;;5.91;95.72;96682.47;4985367;28;20492;-66
2024/01/02 02:18:59;;;;;;;0.52;0.52;;;;;;;5.90;95.97;96672.59;4985315;28;20137;-67
2024/01/02 02:21:26;;;;;;;0.50;0.50;;;;;;;5.84;96.00;96663.81;4985054;28;20058;-67
2024/01/02 02:23:52;;;;;;;0.50;0.50;;;;;;;5.66;97.32;96665.19;4985374;28;20161;-66
2024/01/02 02:26:19;;;;;;;0.57;0.57;;;;;;;5.70;98.12;96659.81;5000137;28;20096;-66
2024/01/02 02:28:46;;;;;;;0.50;0.50;;;;;;;5.37;99.09;96607.03;4982758;28;20054;-66
2024/01/02 02:31:12;;;;;;;0.50;0.50;;;;;;;5.48;98.59;96602.66;4991421;28;20532;-66
2024/01/02 02:33:39;;;;;;;0.50;0.50;;;;;;;5.71;99.55;96647.66;4984442;28;20055;-66
2024/01/02 02:36:06;;;;;;;0.50;0.50;;;;;;;5.55;100.00;96641.31;4984704;28;20046;-66
2024/01/02 02:38:33;;;;;;;0.50;0.50;;;;;;;5.12;99.83;96556.09;4984895;28;20748;-67
2024/01/02 02:41:00;;;;;;;0.50;0.50;;;;;;;5.63;98.63;96612.88;4984497;28;20046;-66
2024/01/02 02:43:27;;;;;;;0.50;0.50;;;;;;;5.90;98.73;96669.84;4984483;28;20064;-67
2024/01/02 02:45:54;;;;;;;0.50;0.50;;;;;;;5.70;98.59;96635.91;4984709;28;20050;-67
2024/01/02 02:48:20;;;;;;;0.50;0.50;;;;;;;5.84;97.57;96643.75;4999314;28;20513;-67
2024/01/02 02:50:47;;;;;;;0.50;0.50;;;;;;;5.92;95.56;96662.06;4984841;28;20117;-67
2024/01/02 02:53:14;;;;;;;0.50;0.50;;;;;;;5.87;94.92;96640.31;4984370;28;20456;-66
2024/01/02 02:55:41;;;;;;;0.50;0.50;;;;;;;5.91;93.85;96649.47;4984389;28;20891;-66
2024/01/02 02:58:07;;;;;;;0.50;0.50;;;;;;;5.88;94.98;96655.69;4985039;28;20058;-66
2024/01/02 03:00:35;;;;;;;0.45;0.45;;;;;;;3.23;94.83;96239.38;5009681;28;20089;-66
2024/01/02 03:03:03;;;;;;;0.50;0.50;;;;;;;5.63;95.50;96623.88;4984497;28;20058;-67
2024/01/02 03:05:31;;;;;;;0.50;0.50;;;;;;;5.89;96.34;96649.81;4985054;28;20082;-67
2024/01/02 03:07:58;;;;;;;0.50;0.50;;;;;;;5.24;96.19;96580.75;4999527;28;20081;-66
2024/01/02 03:10:25;;;;;;;0.50;0.50;;;;;;;5.39;96.10;96560.81;4984807;28;20588;-67
2024/01/02 03:12:52;;;;;;;0.50;0.50;;;;;;;6.01;95.89;96643.47;4984512;28;20051;-66
2024/01/02 03:15:19;;;;;;;0.50;0.50;;;;;;;6.01;96.35;96648.94;4999459;28;20047;-66
2024/01/02 03:17:46;;;;;;;0.50;0.50;;;;;;;6.02;96.90;96650.56;4984467;28;20073;-66
2024/01/02 03:20:14;;;;;;;0.50;0.50;;;;;;;5.85;97.86;96661.84;4984714;28;20831;-65
2024/01/02 03:22:40;;;;;;;0.50;0.50;;;;;;;5.92;98.90;96657.38;4983199;28;20441;-67
2024/01/02 03:25:07;;;;;;;0.50;0.50;;;;;;;6.06;98.36;96648.72;4984822;28;20046;-67
2024/01/02 03:27:34;;;;;;;0.50;0.50;;;;;;;6.14;97.71;96651.31;4983677;28;20444;-66
2024/01/02 03:30:01;;;;;;;0.52;0.52;;;;;;;6.28;97.05;96648.13;4984557;28;20449;-67
2024/01/02 03:32:28;;;;;;;0.50;0.50;;;;;;;6.01;96.65;96602.22;4984166;28;20046;-67
2024/01/02 03:34:56;;;;;;;0.55;0.55;;;;;;;5.78;96.49;96568.19;4983643;28;20069;-66
2024/01/02 03:37:23;;;;;;;0.60;0.60;;;;;;;6.42;95.32;96653.22;4984836;28;20061;-66
2024/01/02 03:39:50;;;;;;;0.50;0.50;;;;;;;4.33;95.11;96343.72;4984814;28;20069;-66
2024/01/02 03:42:16;;;;;;;0.50;0.50;;;;;;;6.40;95.30;96656.34;4984310;28;20069;-67
2024/01/02 03:44:43;;;;;;;0.50;0.50;;;;;;;5.72;95.51;96555.88;5001471;28;20046;-66
2024/01/02 03:47:10;;;;;;;0.60;0.60;;;;;;;5.78;95.55;96551.72;4987599;28;20076;-66
2024/01/02 03:49:37;;;;;;;0.50;0.50;;;;;;;6.25;95.65;96617.78;4987706;28;20056;-66
2024/01/02 03:52:04;;;;;;;0.50;0.50;;;;;;;6.01;95.37;96604.97;4987916;28;20097;-67
2024/01/02 03:54:30;;;;;;;0.60;0.60;;;;;;;5.02;95.13;96463.25;4987927;28;20047;-67
2024/01/02 03:56:57;;;;;;;0.50;0.50;;;;;;;6.31;96.16;96650.19;4987860;28;20402;-67
2024/01/02 03:59:24;;;;;;;0.60;0.60;;;;;;;6.34;96.44;96646.72;4996393;28;20053;-67
2024/01/02 04:01:51;;;;;;;0.50;0.50;;;;;;;6.38;96.33;96636.63;5006630;28;20487;-67
2024/01/02 04:04:17;;;;;;;0.50;0.50;;;;;;;6.18;94.96;96612.88;5007269;28;20054;-67
2024/01/02 04:06:46;;;;;;;0.50;0.50;;;;;;;6.40;95.01;96639.84;5007146;28;20057;-67
2024/01/02 04:09:12;;;;;;;0.50;0.50;;;;;;;5.83;99.90;96653.16;5005627;28;20140;-67
2024/01/02 04:11:39;;;;;;;0.55;0.55;;;;;;;5.48;100.00;96619.13;5006715;28;20062;-67
2024/01/02 04:14:06;;;;;;;0.50;0.50;;;;;;;5.60;99.74;96655.59;5006905;28;20364;-67
2024/01/02 04:16:33;;;;;;;0.50;0.50;;;;;;;5.05;100.00;96665.66;5007017;28;20100;-67
2024/01/02 04:19:00;;;;;;;0.43;0.43;;;;;;;5.30;100.00;96661.72;5007192;28;20057;-67
2024/01/02 04:21:27;;;;;;;0.50;0.50;;;;;;;5.41;100.00;96668.34;5006755;28;20080;-67
2024/01/02 04:23:53;;;;;;;0.50;0.50;;;;;;;5.46;100.00;96670.84;5006503;28;20049;-67
2024/01/02 04:26:20;;;;;;;0.50;0.50;;;;;;;5.55;100.00;96664.09;5007053;28;20049;-68
2024/01/02 04:28:47;;;;;;;0.50;0.50;;;;;;;5.75;100.00;96668.59;5006848;28;20050;-67
2024/01/02 04:31:14;;;;;;;0.50;0.50;;;;;;;5.50;100.00;96622.34;5021537;28;20066;-67
2024/01/02 04:33:40;;;;;;;0.50;0.50;;;;;;;5.91;99.11;96672.25;5005298;28;20053;-67
2024/01/02 04:36:07;;;;;;;0.50;0.50;;;;;;;5.54;98.42;96628.72;5006526;28;20057;-67
2024/01/02 04:38:35;;;;;;;0.40;0.40;;;;;;;5.95;97.55;96680.59;5006269;28;20062;-68
2024/01/02 04:41:03;;;;;;;0.50;0.50;;;;;;;5.92;97.79;96679.34;5006352;28;20136;-67
2024/01/02 04:43:30;;;;;;;0.55;0.55;;;;;;;6.02;96.96;96678.84;5006017;28;20053;-67
2024/01/02 04:45:57;;;;;;;0.50;0.50;;;;;;;6.14;96.57;96675.25;5006248;28;20057;-67
2024/01/02 04:48:23;;;;;;;0.50;0.50;;;;;;;6.14;96.32;96676.06;5006436;28;20144;-68
2024/01/02 04:50:50;;;;;;;0.50;0.50;;;;;;;6.03;96.03;96652.16;5006080;28;20472;-68
2024/01/02 04:53:17;;;;;;;0.50;0.50;;;;;;;5.76;96.07;96614.44;5006170;28;20057;-68
2024/01/02 04:55:44;;;;;;;0.60;0.60;;;;;;;5.95;96.79;96639.38;5005593;28;20054;-67
2024/01/02 04:58:11;;;;;;;0.50;0.50;;;;;;;5.29;97.24;96522.84;5004493;28;20072;-67
2024/01/02 05:00:38;;;;;;;0.50;0.50;;;;;;;6.34;98.09;96679.72;5020878;28;20088;-68
2024/01/02 05:03:05;;;;;;;0.55;0.55;;;;;;;6.49;96.64;96675.41;5005687;28;20084;-68
2024/01/02 05:05:31;;;;;;;0.60;0.60;;;;;;;6.29;96.43;96654.44;5005609;28;20058;-68
2024/01/02 05:07:59;;;;;;;0.50;0.50;;;;;;;6.43;97.15;96655.63;5005887;28;20050;-67
2024/01/02 05:10:26;;;;;;;0.60;0.60;;;;;;;6.57;95.38;96667.00;5005751;28;20061;-68
2024/01/02 05:12:52;;;;;;;0.50;0.50;;;;;;;6.57;95.41;96656.00;5005415;28;20060;-67
2024/01/02 05:15:20;;;;;;;0.50;0.50;;;;;;;6.24;95.72;96622.50;5020678;28;20128;-67
2024/01/02 05:17:47;;;;;;;0.60;0.60;;;;;;;6.46;95.79;96654.91;5005639;28;20133;-67
2024/01/02 05:20:14;;;;;;;0.50;0.50;;;;;;;6.05;97.47;96611.38;5020269;28;20058;-67
2024/01/02 05:22:41;;;;;;;0.50;0.50;;;;;;;6.45;97.55;96658.81;5020769;28;20053;-67
2024/01/02 05:25:09;;;;;;;0.50;0.50;;;;;;;6.47;98.33;96651.00;5004268;28;20128;-68
2024/01/02 05:27:36;;;;;;;0.60;0.60;;;;;;;6.48;98.22;96647.09;5020381;28;20592;-68
2024/01/02 05:30:03;;;;;;;0.60;0.60;;;;;;;6.55;98.89;96652.78;5005456;28;20611;-67
2024/01/02 05:32:31;;;;;;;0.52;0.52;;;;;;;6.40;98.41;96700.34;5005334;28;20531;-67
2024/01/02 05:34:58;;;;;;;0.60;0.60;;;;;;;6.75;96.65;96676.50;5005564;28;20064;-67
2024/01/02 05:37:25;;;;;;;0.60;0.60;;;;;;;6.75;96.06;96672.97;5004720;28;20516;-67
2024/01/02 05:39:52;;;;;;;0.60;0.60;;;;;;;6.78;94.43;96673.03;5005159;28;20056;-68
2024/01/02 05:42:19;;;;;;;0.50;0.50;;;;;;;4.72;94.08;96393.41;5019828;28;20054;-68
2024/01/02 05:44:47;;;;;;;0.60;0.60;;;;;;;6.42;95.47;96665.00;5004423;28;20136;-67
2024/01/02 05:47:14;;;;;;;0.50;0.50;;;;;;;6.26;96.81;96666.94;5017981;28;20069;-66
2024/01/02 05:49:41;;;;;;;0.50;0.50;;;;;;;3.89;97.38;96376.81;5003207;28;20057;-67
2024/01/02 05:52:08;;;;;;;0.50;0.50;;;;;;;6.00;97.80;96619.88;5003380;28;20057;-67
2024/01/02 05:54:35;;;;;;;0.50;0.50;;;;;;;6.23;98.66;96670.38;5003933;28;20058;-66
2024/01/02 05:57:05;;;;;;;0.50;0.50;;;;;;;6.29;99.67;96677.25;5003268;28;20452;-66
2024/01/02 05:59:32;;;;;;;0.57;0.57;;;;;;;5.50;98.46;96550.94;5002588;28;20052;-66
2024/01/02 06:01:59;;;;;;;0.60;0.60;;;;;;;5.89;98.79;96607.78;5002979;28;20050;-66
2024/01/02 06:04:26;;;;;;;0.60;0.60;;;;;;;6.48;98.71;96684.81;4984491;28;20062;-66
2024/01/02 06:06:53;;;;;;;0.50;0.50;;;;;;;6.50;98.37;96686.06;4983831;28;20054;-65
2024/01/02 06:09:20;;;;;;;0.60;0.60;;;;;;;6.52;99.05;96686.50;4999252;28;20109;-64
2024/01/02 06:11:47;;;;;;;0.60;0.60;;;;;;;5.97;99.46;96584.84;5002832;28;20128;-67
2024/01/02 06:14:15;;;;;;;0.50;0.50;;;;;;;6.31;98.53;96641.94;5001525;28;20081;-68
2024/01/02 06:16:42;;;;;;;0.60;0.60;;;;;;;5.65;100.00;96585.88;5003517;28;20057;-68
2024/01/02 06:19:11;;;;;;;0.50;0.50;;;;;;;6.00;100.00;96608.88;5003640;28;20119;-66
2024/01/02 06:21:38;;;;;;;0.60;0.60;;;;;;;6.42;99.87;96676.00;5003545;28;20546;-67
2024/01/02 06:24:14;;;;;;;0.50;0.50;;;;;;;6.32;99.63;96624.28;5035537;28;20473;-67
2024/01/02 06:26:42;;;;;;;0.60;0.60;;;;;;;5.10;98.80;96415.66;5003921;28;20057;-68
2024/01/02 06:29:09;;;;;;;0.60;0.60;;;;;;;7.02;98.50;96710.59;5003477;28;20505;-68
2024/01/02 06:31:36;;;;;;;0.60;0.60;;;;;;;7.10;97.78;96754.50;5004075;28;20062;-68
2024/01/02 06:34:03;;;;;;;0.60;0.60;;;;;;;7.12;98.05;96710.88;5004220;28;20428;-68
2024/01/02 06:36:30;;;;;;;0.60;0.60;;;;;;;7.03;98.65;96723.22;5003704;28;20501;-68
2024/01/02 06:38:58;;;;;;;0.60;0.60;;;;;;;6.96;98.12;96723.84;5003613;28;20085;-68
2024/01/02 06:41:25;;;;;;;0.60;0.60;;;;;;;6.54;97.38;96640.19;5003880;28;20045;-67
2024/01/02 06:43:52;;;;;;;0.60;0.60;;;;;;;7.11;97.38;96730.50;5002254;28;20439;-67
2024/01/02 06:46:19;;;;;;;0.60;0.60;;;;;;;7.15;97.96;96737.72;5003606;28;20064;-72
2024/01/02 06:48:46;;;;;;;0.60;0.60;;;;;;;7.17;97.25;96727.16;4996950;28;20716;-65
2024/01/02 06:51:13;;;;;;;0.60;0.60;;;;;;;7.20;96.98;96723.66;4983829;28;20250;-68
2024/01/02 06:53:40;;;;;;;0.60;0.60;;;;;;;7.21;97.76;96729.97;4983829;28;20043;-65
2024/01/02 06:56:08;;;;;;;0.60;0.60;;;;;;;6.11;96.72;96538.47;4999244;28;20114;-66
2024/01/02 06:58:36;;;;;;;0.60;0.60;;;;;;;6.46;97.72;96612.84;4983933;28;20055;-71
2024/01/02 07:01:06;;;;;;;0.60;0.60;;;;;;;7.31;98.29;96729.44;4999459;28;20058;-68
2024/01/02 07:03:33;;;;;;;0.60;0.60;;;;;;;7.31;98.41;96723.91;5017861;28;20062;-67
2024/01/02 07:06:00;;;;;;;0.60;0.60;;;;;;;7.33;98.95;96749.94;5003677;28;20050;-68
2024/01/02 07:08:27;;;;;;;0.60;0.60;;;;;;;7.47;98.51;96733.78;5003707;28;20049;-70
2024/01/02 07:10:54;;;;;;;0.70;0.70;;;;;;;7.46;98.63;96737.66;5003589;28;20057;-70
2024/01/02 07:13:22;;;;;;;0.60;0.60;;;;;;;7.46;99.48;96737.66;5002217;28;20092;-68
2024/01/02 07:15:49;;;;;;;0.60;0.60;;;;;;;7.47;100.00;96733.78;5003599;28;20073;-65
2024/01/02 07:18:23;;;;;;;0.60;0.60;;;;;;;7.04;100.00;96667.00;5003493;28;20045;-72
2024/01/02 07:20:51;;;;;;;0.60;0.60;;;;;;;7.41;100.00;96685.59;4997850;28;20053;-70
2024/01/02 07:23:19;;;;;;;0.63;0.63;;;;;;;7.78;100.00;96721.09;5037474;28;20077;-68
2024/01/02 07:25:49;;;;;;;0.70;0.70;;;;;;;7.80;100.00;96724.28;5006918;28;20054;-67
2024/01/02 07:28:16;;;;;;;0.60;0.60;;;;;;;7.70;100.00;96726.44;5006879;28;20576;-66
2024/01/02 07:30:43;;;;;;;0.60;0.60;;;;;;;7.88;100.00;96717.75;5007595;28;20224;-69
2024/01/02 07:33:10;;;;;;;0.60;0.60;;;;;;;7.99;100.00;96721.53;5005900;28;20061;-74
2024/01/02 07:35:37;;;;;;;0.70;0.70;;;;;;;7.92;99.39;96715.88;4989636;28;20065;-68
2024/01/02 07:38:04;;;;;;;0.70;0.70;;;;;;;7.97;100.00;96718.34;4979325;28;20596;-73
2024/01/02 07:40:33;;;;;;;0.70;0.70;;;;;;;8.08;100.00;96708.34;5006865;28;20054;-71
2024/01/02 07:43:00;;;;;;;0.63;0.63;;;;;;;8.20;99.73;96716.47;5007115;28;20058;-70
2024/01/02 07:45:31;;;;;;;0.70;0.70;;;;;;;8.22;100.00;96723.22;5007112;28;20068;-65
2024/01/02 07:47:58;;;;;;;0.63;0.63;;;;;;;8.29;99.96;96719.84;5007000;28;20045;-67
2024/01/02 07:50:28;;;;;;;0.70;0.70;;;;;;;8.32;100.00;96724.63;4986593;28;20050;-65
2024/01/02 07:52:55;;;;;;;0.70;0.70;;;;;;;7.94;100.00;96648.16;4987288;28;20426;-72
2024/01/02 07:55:22;;;;;;;0.65;0.65;;;;;;;8.50;100.00;96731.31;5005558;28;20058;-66
2024/01/02 07:57:49;;;;;;;0.70;0.70;;;;;;;8.47;100.00;96729.28;5021774;28;20552;-66
2024/01/02 08:00:17;;;;;;;0.65;0.65;;;;;;;8.12;100.00;96721.06;5006287;28;20057;-68
2024/01/02 08:02:53;;;;;;;0.70;0.70;;;;;;;8.02;100.00;96720.81;5006348;28;20507;-68
2024/01/02 08:05:21;;;;;;;0.70;0.70;;;;;;;7.93;100.00;96717.47;4999762;28;20054;-67
2024/01/02 08:07:51;;;;;;;0.68;0.68;;;;;;;8.29;100.00;96722.59;4987243;28;20477;-75
2024/01/02 08:10:18;;;;;;;0.70;0.70;;;;;;;8.36;100.00;96726.28;5004435;28;20111;-67
2024/01/02 08:12:45;;;;;;;0.70;0.70;;;;;;;8.40;100.00;96721.66;5006520;28;20141;-71
2024/01/02 08:15:14;;;;;;;0.70;0.70;;;;;;;8.40;100.00;96724.44;5006485;28;20081;-70
2024/01/02 08:17:59;;;;;;;0.60;0.60;;;;;;;8.01;100.00;96664.06;5007018;28;20050;-67
2024/01/02 08:20:27;;;;;;;0.70;0.70;;;;;;;7.65;100.00;96679.03;5006112;28;20539;-69
2024/01/02 08:22:54;;;;;;;0.60;0.60;;;;;;;7.91;100.00;96694.97;5037725;28;20060;-73
2024/01/02 08:25:23;;;;;;;0.60;0.60;;;;;;;8.47;100.00;96732.06;5005791;28;20141;-74
2024/01/02 08:27:51;;;;;;;0.70;0.70;;;;;;;8.63;100.00;96732.75;5004907;28;20053;-65
2024/01/02 08:30:24;;;;;;;0.70;0.70;;;;;;;8.77;100.00;96735.78;5004954;28;20452;-67
2024/01/02 08:33:10;;;;;;;0.70;0.70;;;;;;;8.10;100.00;96624.06;5005350;28;20149;-81
2024/01/02 08:35:44;;;;;;;0.70;0.70;;;;;;;7.73;100.00;96560.31;5019093;28;20151;-61
2024/01/02 08:38:11;;;;;;;0.80;0.80;;;;;;;8.49;100.00;96668.97;5004353;28;20532;-60
2024/01/02 08:40:38;;;;;;;0.70;0.70;;;;;;;9.16;100.00;96748.34;5006070;28;20447;-63
2024/01/02 08:43:05;;;;;;;0.80;0.80;;;;;;;7.02;100.00;96396.72;5005686;28;20521;-61
2024/01/02 08:45:44;;;;;;;0.73;0.73;;;;;;;8.95;100.00;96676.13;5005708;28;20392;-66
2024/01/02 08:48:19;;;;;;;0.75;0.75;;;;;;;9.32;100.00;96707.56;5003872;28;20049;-64
2024/01/02 08:50:46;;;;;;;0.70;0.70;;;;;;;9.05;100.00;96683.81;5005165;28;20057;-60
2024/01/02 08:53:21;;;;;;;0.80;0.80;;;;;;;9.48;100.00;96749.69;5005352;28;20052;-63
2024/01/02 08:55:51;;;;;;;0.73;0.73;;;;;;;9.70;100.00;96751.63;5005836;28;20073;-64
2024/01/02 08:58:18;;;;;;;0.77;0.77;;;;;;;8.72;100.00;96620.13;5005700;28;20057;-70
2024/01/02 09:00:45;;;;;;;0.60;0.60;;;;;;;9.86;100.00;96749.50;5005370;28;20064;-63
2024/01/02 09:03:12;;;;;;;0.80;0.80;;;;;;;9.34;100.00;96683.13;5019623;28;20061;-64
2024/01/02 09:05:39;;;;;;;0.73;0.73;;;;;;;9.74;100.00;96724.81;5000418;28;20050;-65
2024/01/02 09:08:06;;;;;;;0.70;0.70;;;;;;;10.07;99.58;96757.31;5000559;28;20109;-61
2024/01/02 09:10:33;;;;;;;0.80;0.80;;;;;;;8.48;99.83;96496.28;4985741;28;20138;-68
2024/01/02 09:13:00;;;;;;;0.80;0.80;;;;;;;10.16;99.42;96746.78;5000601;28;20068;-68
2024/01/02 09:15:27;;;;;;;0.80;0.80;;;;;;;9.31;96.60;96620.28;5003848;28;20509;-68
2024/01/02 09:17:54;;;;;;;0.80;0.80;;;;;;;9.56;96.00;96640.81;5005326;28;20371;-62
2024/01/02 09:20:21;;;;;;;0.80;0.80;;;;;;;9.89;94.32;96673.25;5004946;28;20060;-63
2024/01/02 09:22:47;;;;;;;0.80;0.80;;;;;;;10.30;94.90;96750.56;5005105;28;20511;-62
2024/01/02 09:25:16;;;;;;;0.80;0.80;;;;;;;9.39;94.13;96619.22;5004221;28;20526;-67
2024/01/02 09:27:44;;;;;;;0.80;0.80;;;;;;;9.28;94.10;96596.16;5004395;28;20060;-70
2024/01/02 09:30:14;;;;;;;0.80;0.80;;;;;;;9.83;93.86;96719.78;5019908;28;20058;-71
2024/01/02 09:32:42;;;;;;;0.70;0.70;;;;;;;9.85;93.85;96731.28;5005335;28;20061;-67
2024/01/02 09:35:10;;;;;;;0.80;0.80;;;;;;;9.57;94.97;96675.56;5004559;28;20065;-66
2024/01/02 09:37:37;;;;;;;0.80;0.80;;;;;;;10.14;94.91;96752.69;5005019;28;20053;-65
2024/01/02 09:40:32;;;;;;;0.90;0.90;;;;;;;9.92;95.59;96741.66;5005370;28;20536;-70
2024/01/02 09:43:41;;;;;;;0.80;0.80;;;;;;;10.03;97.21;96760.03;4996949;28;20132;-64
2024/01/02 09:46:24;;;;;;;0.80;0.80;;;;;;;9.64;97.01;96714.38;5001638;28;20049;-68
2024/01/02 09:49:03;;;;;;;0.80;0.80;;;;;;;9.83;97.11;96768.81;5004655;28;20053;-68
2024/01/02 09:51:48;;;;;;;0.70;0.70;;;;;;;9.70;96.67;96770.97;5019686;28;20046;-65
2024/01/02 09:54:42;;;;;;;0.70;0.70;;;;;;;8.96;97.70;96674.97;5004629;28;20543;-66
2024/01/02 09:57:43;;;;;;;0.80;0.80;;;;;;;9.47;98.36;96770.19;5004569;28;20073;-62
2024/01/02 10:00:41;;;;;;;0.70;0.70;;;;;;;9.29;98.36;96774.63;5004005;28;20076;-64
2024/01/02 10:03:41;;;;;;;0.70;0.70;;;;;;;9.29;98.95;96760.81;5004252;28;20140;-62
2024/01/02 10:06:20;;;;;;;0.70;0.70;;;;;;;9.15;99.89;96760.56;4984869;28;20046;-68
2024/01/02 10:09:02;;;;;;;0.70;0.70;;;;;;;8.90;100.00;96762.88;4994256;28;20045;-60
2024/01/02 10:11:43;;;;;;;0.70;0.70;;;;;;;8.85;100.00;96770.66;5003423;28;20054;-63
2024/01/02 10:14:34;;;;;;;0.70;0.70;;;;;;;8.75;100.00;96761.00;5020205;28;20472;-61
2024/01/02 10:17:34;;;;;;;0.70;0.70;;;;;;;8.64;100.00;96759.19;4995426;28;20479;-64
2024/01/02 10:20:22;;;;;;;0.70;0.70;;;;;;;8.63;100.00;96752.09;5026631;28;20611;-63
2024/01/02 10:23:10;;;;;;;0.70;0.70;;;;;;;6.05;100.00;96369.47;5004037;28;20137;-63
2024/01/02 10:25:39;;;;;;;0.70;0.70;;;;;;;8.62;100.00;96761.53;5004566;28;20216;-63
2024/01/02 10:28:22;;;;;;;0.70;0.70;;;;;;;8.52;100.00;96767.66;5004008;28;20054;-65
2024/01/02 10:31:03;;;;;;;0.70;0.70;;;;;;;8.41;100.00;96728.00;5002639;28;20073;-69
2024/01/02 10:33:38;;;;;;;0.60;0.60;;;;;;;8.14;100.00;96702.16;5001330;28;20058;-70
2024/01/02 10:36:09;;;;;;;0.70;0.70;;;;;;;8.46;100.00;96749.75;5000641;28;20054;-69
2024/01/02 10:38:54;;;;;;;0.70;0.70;;;;;;;8.48;100.00;96750.19;5001086;28;20046;-64
2024/01/02 10:41:46;;;;;;;0.70;0.70;;;;;;;8.53;100.00;96758.19;5004052;28;20406;-63
2024/01/02 10:44:30;;;;;;;0.70;0.70;;;;;;;8.61;100.00;96737.84;5004065;28;20049;-68
2024/01/02 10:47:08;;;;;;;0.63;0.63;;;;;;;8.64;100.00;96735.16;5004322;28;20227;-68
2024/01/02 10:49:44;;;;;;;0.63;0.63;;;;;;;8.63;100.00;96730.00;5004328;28;20054;-68
2024/01/02 10:52:24;;;;;;;0.70;0.70;;;;;;;8.79;100.00;96723.19;5004434;28;20050;-64
2024/01/02 10:55:02;;;;;;;0.70;0.70;;;;;;;8.64;100.00;96693.75;5009817;28;20049;-68
2024/01/02 10:57:34;;;;;;;0.70;0.70;;;;;;;8.97;100.00;96729.06;5010852;28;20353;-68
2024/01/02 11:00:10;;;;;;;0.70;0.70;;;;;;;8.44;100.00;96628.69;5010224;28;20072;-68
2024/01/02 11:02:44;;;;;;;0.70;0.70;;;;;;;9.39;100.00;96724.25;5009056;28;20145;-69
2024/01/02 11:05:37;;;;;;;0.70;0.70;;;;;;;9.33;100.00;96664.91;4993699;28;20109;-67
2024/01/02 11:08:10;;;;;;;0.80;0.80;;;;;;;9.88;100.00;96713.94;4990769;28;20426;-62
2024/01/02 11:10:58;;;;;;;0.80;0.80;;;;;;;9.84;100.00;96706.75;4990411;28;20161;-61
2024/01/02 11:13:30;;;;;;;0.70;0.70;;;;;;;9.79;100.00;96699.59;4992891;28;20062;-61
2024/01/02 11:16:03;;;;;;;0.80;0.80;;;;;;;9.96;100.00;96693.50;5024530;28;20128;-67
2024/01/02 11:18:31;;;;;;;;;;;;;;;10.13;100.00;96690.19;5010235;28;20116;-67
2024/01/02 11:21:09;;;;;;;0.70;0.70;;;;;;;10.17;100.00;96682.75;5010244;28;19932;-62
2024/01/02 11:23:41;;;;;;;0.80;0.80;;;;;;;10.41;100.00;96687.81;5010295;28;20136;-68
2024/01/02 11:26:20;;;;;;;0.77;0.77;;;;;;;10.57;98.59;96685.59;5008890;28;20061;-68
2024/01/02 11:28:51;;;;;;;0.80;0.80;;;;;;;10.36;95.94;96646.59;5022731;28;20145;-61
2024/01/02 11:31:19;;;;;;;0.82;0.82;;;;;;;9.10;96.21;96434.88;5024300;28;20136;-69
2024/01/02 11:34:01;;;;;;;0.80;0.80;;;;;;;10.90;96.01;96670.09;5008903;28;20578;-71
2024/01/02 11:36:42;;;;;;;0.80;0.80;;;;;;;10.55;94.30;96604.88;5000919;28;20058;-68
2024/01/02 11:39:13;;;;;;;0.90;0.90;;;;;;;10.72;94.87;96619.28;5011615;28;20124;-74
2024/01/02 11:42:19;;;;;;;0.80;0.80;;;;;;;11.19;93.62;96649.78;5023487;28;20445;-80
2024/01/02 11:44:57;;;;;;;1.00;1.00;;;;;;;11.49;90.36;96675.38;4934101;28;20143;-77
2024/01/02 11:47:40;;;;;;;0.90;0.90;;;;;;;10.87;89.18;96521.25;5001077;28;20605;-62
2024/01/02 11:50:09;;;;;;;0.93;0.93;;;;;;;12.03;85.98;96669.78;5009418;28;20554;-63
2024/01/02 11:52:57;;;;;;;0.90;0.90;;;;;;;11.05;85.70;96567.31;4998438;28;20084;-79